createdAt,value
2022-10-13T00:04:33.996Z,52.45
2022-10-13T00:09:36.046Z,52.79
2022-10-13T00:14:37.887Z,52.87
2022-10-13T00:19:39.583Z,53.19
2022-10-13T00:24:42.741Z,53.31
2022-10-13T00:29:44.890Z,53.48
2022-10-13T00:34:46.574Z,53.79
2022-10-13T00:39:50.023Z,53.73
2022-10-13T00:45:15.979Z,53.80
2022-10-13T00:50:21.471Z,53.88
2022-10-13T00:55:34.367Z,53.92
2022-10-13T01:00:37.849Z,53.69
2022-10-13T01:05:42.052Z,53.87
2022-10-13T01:10:59.372Z,53.82
2022-10-13T01:16:28.070Z,53.81
2022-10-13T01:22:21.680Z,53.93
2022-10-13T01:27:48.199Z,54.00
2022-10-13T01:33:10.648Z,54.04
2022-10-13T01:38:27.000Z,53.60
2022-10-13T01:43:43.399Z,53.41
2022-10-13T01:49:05.440Z,53.56
2022-10-13T01:54:07.467Z,53.41
2022-10-13T01:59:12.869Z,53.51
2022-10-13T02:04:55.729Z,53.54
2022-10-13T02:10:09.268Z,53.97
2022-10-13T02:15:16.293Z,54.17
2022-10-13T02:20:20.577Z,54.50
2022-10-13T02:25:23.134Z,54.71
2022-10-13T02:30:28.806Z,54.81
2022-10-13T02:35:31.180Z,54.85
2022-10-13T02:40:35.630Z,55.03
2022-10-13T02:45:37.348Z,55.03
2022-10-13T02:50:39.562Z,55.06
2022-10-13T02:55:41.441Z,55.06
2022-10-13T03:00:43.311Z,54.98
2022-10-13T03:05:45.452Z,54.92
2022-10-13T03:10:47.222Z,55.13
2022-10-13T03:15:50.693Z,55.27
2022-10-13T03:21:04.361Z,55.26
2022-10-13T03:26:06.837Z,55.54
2022-10-13T03:31:11.002Z,55.40
2022-10-13T03:36:13.537Z,55.50
2022-10-13T03:41:19.461Z,55.65
2022-10-13T03:46:28.284Z,55.44
2022-10-13T03:51:32.078Z,55.57
2022-10-13T03:56:34.286Z,55.31
2022-10-13T04:01:36.264Z,55.13
2022-10-13T04:06:39.278Z,55.27
2022-10-13T04:11:41.071Z,55.18
2022-10-13T04:16:42.873Z,55.37
2022-10-13T04:21:44.763Z,55.34
2022-10-13T04:26:46.893Z,55.43
2022-10-13T04:31:48.722Z,55.39
2022-10-13T04:36:51.978Z,55.35
2022-10-13T04:41:55.526Z,55.34
2022-10-13T04:46:57.796Z,55.38
2022-10-13T04:51:59.669Z,55.30
2022-10-13T04:57:02.294Z,55.23
2022-10-13T05:02:05.868Z,55.53
2022-10-13T05:07:18.112Z,55.70
2022-10-13T05:12:22.690Z,55.76
2022-10-13T05:17:25.381Z,55.78
2022-10-13T05:22:28.245Z,55.69
2022-10-13T05:27:29.858Z,55.89
2022-10-13T05:32:31.445Z,55.84
2022-10-13T05:37:33.179Z,56.04
2022-10-13T05:42:36.025Z,56.11
2022-10-13T05:47:37.601Z,56.15
2022-10-13T05:52:39.638Z,56.13
2022-10-13T05:57:44.524Z,56.54
2022-10-13T06:03:14.993Z,56.48
2022-10-13T06:08:18.722Z,56.75
2022-10-13T06:13:20.840Z,56.70
2022-10-13T06:18:22.541Z,56.84
2022-10-13T06:23:24.405Z,56.94
2022-10-13T06:28:27.315Z,56.93
2022-10-13T06:33:29.154Z,57.20
2022-10-13T06:38:31.148Z,57.21
2022-10-13T06:43:39.950Z,56.96
2022-10-13T06:48:45.561Z,57.30
2022-10-13T06:53:47.637Z,57.26
2022-10-13T06:58:49.218Z,57.09
2022-10-13T07:03:52.144Z,57.27
2022-10-13T07:08:55.895Z,57.25
2022-10-13T07:13:57.581Z,57.21
2022-10-13T07:19:00.446Z,56.97
2022-10-13T07:24:04.116Z,57.23
2022-10-13T07:29:05.717Z,57.31
2022-10-13T07:34:08.469Z,57.07
2022-10-13T07:39:10.291Z,57.05
2022-10-13T07:44:11.928Z,57.03
2022-10-13T07:49:16.180Z,57.06
2022-10-13T07:54:22.541Z,57.26
2022-10-13T07:59:26.782Z,57.25
2022-10-13T08:04:32.610Z,57.12
2022-10-13T08:09:34.696Z,57.07
2022-10-13T08:14:36.585Z,57.09
2022-10-13T08:19:38.401Z,57.22
2022-10-13T08:24:40.219Z,57.34
2022-10-13T08:29:43.388Z,57.34
2022-10-13T08:34:45.986Z,57.28
2022-10-13T08:39:47.582Z,57.30
2022-10-13T08:50:23.925Z,57.37
2022-10-13T08:55:36.218Z,57.35
2022-10-13T09:00:38.892Z,57.01
2022-10-13T09:05:54.121Z,57.35
2022-10-13T09:10:55.721Z,57.07
2022-10-13T09:15:58.071Z,57.00
2022-10-13T09:21:20.544Z,56.98
2022-10-13T09:26:25.092Z,56.96
2022-10-13T09:31:28.940Z,56.87
2022-10-13T09:36:31.359Z,56.69
2022-10-13T09:41:34.027Z,56.51
2022-10-13T09:46:50.387Z,56.54
2022-10-13T09:52:01.437Z,56.41
2022-10-13T09:57:11.884Z,56.19
2022-10-13T10:02:43.686Z,56.01
2022-10-13T10:07:45.430Z,55.90
2022-10-13T10:12:47.354Z,55.96
2022-10-13T10:18:05.837Z,55.90
2022-10-13T10:23:26.120Z,56.04
2022-10-13T10:28:44.020Z,56.11
2022-10-13T10:34:15.537Z,55.68
2022-10-13T10:39:29.546Z,55.73
2022-10-13T10:44:36.699Z,55.63
2022-10-13T10:49:39.556Z,55.45
2022-10-13T10:54:49.549Z,55.49
2022-10-13T11:00:05.922Z,55.31
2022-10-13T11:05:07.621Z,55.24
2022-10-13T11:10:18.464Z,55.13
2022-10-13T11:15:27.454Z,55.14
2022-10-13T11:20:35.462Z,54.98
2022-10-13T11:25:41.391Z,54.94
2022-10-13T11:30:50.595Z,54.84
2022-10-13T11:35:53.738Z,54.76
2022-10-13T11:41:18.733Z,54.71
2022-10-13T11:46:40.676Z,54.77
2022-10-13T11:52:01.067Z,54.60
2022-10-13T11:57:04.683Z,54.42
2022-10-13T12:02:13.982Z,54.34
2022-10-13T12:07:22.080Z,54.39
2022-10-13T12:12:24.980Z,54.13
2022-10-13T12:17:27.293Z,54.19
2022-10-13T12:22:29.469Z,54.13
2022-10-13T12:27:46.932Z,54.29
2022-10-13T12:32:51.484Z,54.09
2022-10-13T12:37:55.025Z,53.81
2022-10-13T12:42:57.040Z,54.01
2022-10-13T12:47:58.840Z,53.89
2022-10-13T12:53:26.564Z,53.81
2022-10-13T12:58:34.702Z,53.60
2022-10-13T13:03:37.684Z,53.90
2022-10-13T13:08:41.843Z,53.67
2022-10-13T13:13:43.614Z,53.17
2022-10-13T13:18:48.200Z,53.32
2022-10-13T13:23:53.754Z,53.34
2022-10-13T13:28:56.983Z,53.40
2022-10-13T13:33:58.725Z,53.45
2022-10-13T13:39:00.546Z,53.32
2022-10-13T13:44:02.256Z,53.46
2022-10-13T13:49:04.057Z,53.20
2022-10-13T13:54:06.440Z,53.03
2022-10-13T13:59:08.120Z,53.01
2022-10-13T14:04:10.235Z,52.91
2022-10-13T14:09:12.905Z,53.14
2022-10-13T14:14:15.963Z,52.98
2022-10-13T14:19:17.681Z,53.09
2022-10-13T14:24:20.299Z,53.13
2022-10-13T14:29:22.754Z,53.22
2022-10-13T14:34:24.548Z,53.16
2022-10-13T14:39:26.182Z,53.10
2022-10-13T14:44:27.917Z,53.44
2022-10-13T14:49:29.563Z,53.39
2022-10-13T14:54:31.557Z,53.32
2022-10-13T14:59:33.303Z,53.33
2022-10-13T15:04:35.023Z,53.50
2022-10-13T15:09:52.254Z,53.46
2022-10-13T15:14:54.166Z,53.25
2022-10-13T15:19:55.774Z,53.30
2022-10-13T15:24:58.654Z,53.38
2022-10-13T15:30:01.760Z,53.27
2022-10-13T15:35:03.584Z,53.12
2022-10-13T15:40:09.470Z,53.03
2022-10-13T15:45:11.808Z,52.77
2022-10-13T15:50:15.016Z,52.96
2022-10-13T15:55:16.647Z,52.89
2022-10-13T16:00:18.338Z,52.77
2022-10-13T16:05:20.296Z,52.75
2022-10-13T16:10:22.361Z,52.71
2022-10-13T16:15:23.930Z,52.57
2022-10-13T16:20:26.406Z,52.70
2022-10-13T16:25:29.381Z,52.86
2022-10-13T16:30:31.023Z,52.77
2022-10-13T16:35:34.349Z,52.99
2022-10-13T16:40:39.847Z,53.03
2022-10-13T16:45:59.200Z,52.91
2022-10-13T16:51:06.861Z,52.91
2022-10-13T16:56:09.100Z,53.01
2022-10-13T17:01:12.090Z,52.81
2022-10-13T17:06:15.248Z,53.11
2022-10-13T17:11:19.669Z,53.23
2022-10-13T17:16:21.983Z,53.11
2022-10-13T17:21:23.594Z,53.21
2022-10-13T17:26:25.297Z,53.06
2022-10-13T17:31:27.118Z,53.09
2022-10-13T17:36:31.957Z,53.14
2022-10-13T17:41:37.443Z,53.33
2022-10-13T17:46:40.062Z,53.23
2022-10-13T17:51:43.343Z,53.17
2022-10-13T17:56:50.292Z,53.30
2022-10-13T18:01:51.976Z,53.37
2022-10-13T18:06:53.779Z,53.25
2022-10-13T18:11:56.338Z,53.55
2022-10-13T18:16:58.118Z,53.62
2022-10-13T18:21:59.728Z,53.47
2022-10-13T18:27:01.810Z,53.57
2022-10-13T18:32:04.960Z,53.74
2022-10-13T18:37:06.617Z,53.81
2022-10-13T18:42:08.500Z,53.53
2022-10-13T18:47:10.873Z,53.68
2022-10-13T18:52:12.941Z,53.57
2022-10-13T18:57:14.555Z,53.71
2022-10-13T19:02:16.345Z,53.33
2022-10-13T19:07:18.293Z,53.41
2022-10-13T19:12:20.347Z,53.41
2022-10-13T19:17:22.327Z,53.83
2022-10-13T19:22:24.370Z,53.84
2022-10-13T19:27:26.892Z,53.82
2022-10-13T19:32:28.698Z,53.74
2022-10-13T19:37:32.492Z,53.80
2022-10-13T19:42:35.355Z,53.99
2022-10-13T19:47:39.148Z,54.00
2022-10-13T19:52:42.349Z,53.88
2022-10-13T19:57:44.033Z,54.21
2022-10-13T20:02:46.178Z,54.24
2022-10-13T20:07:48.278Z,54.37
2022-10-13T20:12:50.029Z,54.57
2022-10-13T20:17:51.723Z,54.44
2022-10-13T20:22:54.032Z,54.22
2022-10-13T20:27:57.011Z,54.17
2022-10-13T20:32:59.061Z,54.38
2022-10-13T20:38:00.808Z,54.19
2022-10-13T20:43:02.374Z,54.71
2022-10-13T20:48:03.968Z,54.63
2022-10-13T20:53:05.743Z,54.53
2022-10-13T20:58:07.344Z,54.55
2022-10-13T21:03:08.957Z,54.72
2022-10-13T21:08:11.430Z,54.76
2022-10-13T21:13:14.502Z,54.99
2022-10-13T21:18:16.282Z,54.95
2022-10-13T21:23:17.946Z,55.15
2022-10-13T21:28:19.556Z,55.30
2022-10-13T21:33:22.067Z,55.21
2022-10-13T21:38:24.333Z,55.55
2022-10-13T21:43:25.970Z,56.05
2022-10-13T21:48:27.557Z,56.23
2022-10-13T21:53:29.209Z,56.20
2022-10-13T21:58:30.989Z,56.43
2022-10-13T22:03:33.188Z,56.62
2022-10-13T22:08:39.609Z,56.50
2022-10-13T22:13:48.870Z,56.80
2022-10-13T22:18:55.190Z,56.73
2022-10-13T22:23:58.508Z,56.72
2022-10-13T22:29:01.948Z,56.72
2022-10-13T22:34:04.452Z,56.87
2022-10-13T22:39:06.191Z,57.07
2022-10-13T22:44:08.650Z,56.93
2022-10-13T22:49:11.335Z,57.03
2022-10-13T22:54:13.046Z,57.17
2022-10-13T22:59:14.839Z,57.25
2022-10-13T23:04:17.242Z,56.79
2022-10-13T23:09:19.151Z,57.22
2022-10-13T23:14:20.875Z,57.51
2022-10-13T23:19:22.636Z,57.42
2022-10-13T23:24:24.219Z,57.37
2022-10-13T23:29:26.570Z,57.41
2022-10-13T23:34:29.268Z,57.44
2022-10-13T23:39:31.205Z,57.51
2022-10-13T23:44:32.830Z,57.34
2022-10-13T23:49:34.494Z,57.55
2022-10-13T23:54:36.140Z,57.60
2022-10-13T23:59:38.877Z,57.65
